METAR Data
IDs: Format: Raw Decoded Include TAF

Data at: 1451 UTC 25 Jan 2020

METAR for:KIOW (Iowa City Muni, IA, US)
Text:KIOW 251352Z AUTO 28012KT 8SM OVC011 00/M03 A2997 RMK AO2 SLP155 T00001028 $
Temperature: 0.0°C ( 32°F)
Dewpoint: -2.8°C ( 27°F) [RH = 81%]
Pressure (altimeter):29.97 inches Hg (1015.0 mb) [Sea level pressure: 1015.5 mb]
Winds:from the W (280 degrees) at 14 MPH (12 knots; 6.2 m/s)
Visibility: 8 sm ( 13 km)
Ceiling:1100 feet AGL
Clouds: overcast cloud deck at 1100 feet AGL
QC Flag:automated observation with no human augmentation; SOME DATA ABOVE MAY BE INACCURATE!!!"$" is an indication the sensor requires maintenance.